Información del aeropuerto LELN

Información de pista
Pista 05 Longitud 6890 ft Anchura 148 ft
Elevación 2994 ft Umbral 0 ft Rumbo 45
Pista 23 Longitud 6890 ft Anchura 148 ft
Elevación 3001 ft Umbral 0 ft Rumbo 225
Pista 06 Longitud 3609 ft Anchura 328 ft
Elevación 3034 ft Umbral 0 ft Rumbo 60
Pista 24 Longitud 3609 ft Anchura 328 ft
Elevación 3000 ft Umbral 0 ft Rumbo 240
Frecuencias del aeropuerto
Tipo APP Nombre APP Frecuencia 122.1 MHZ
Tipo TWR Nombre TWR Frecuencia 122.1 MHZ
Radioayudas del aeropuerto
Tipo VOR-DME Nombre Leon Frecuencia 112000 KHZ
Tipo NDB Nombre Leon Frecuencia 330 KHZ
Información meteorológica del aeropuerto y NOTAM
ADDS - METARS form results

(0207 UTC 26 September 2020)
Data provider http://aviationweather.gov/metar/data/
 
METAR text: LELN 260200Z AUTO 16001KT 7000 NSC 07/03 Q1024
Conditions at: LELN (LEON/VIRGEN CAMI, ES) observed 0200 UTC 26 September 2020
Temperature: 7.0°C (45°F)
Dewpoint: 3.0°C (37°F) [RH = 76%]
Pressure (altimeter): 30.24 inches Hg (1024.0 mb)
Winds: from the SSE (160 degrees) at 1 MPH (1 knots; 0.5 m/s)
Visibility: 4 miles ( 7 km)
Ceiling: at least 12,000 feet AGL
Clouds: sky clear below 12,000 feet AGL
Weather: no significant weather observed at this time

METAR text: LELN 260130Z AUTO 30005KT 250V340 9000 NSC 08/03 Q1024
Conditions at: LELN (LEON/VIRGEN CAMI, ES) observed 0130 UTC 26 September 2020
Temperature: 8.0°C (46°F)
Dewpoint: 3.0°C (37°F) [RH = 71%]
Pressure (altimeter): 30.24 inches Hg (1024.0 mb)
Winds: from the WNW (300 degrees) at 6 MPH (5 knots; 2.6 m/s)
Visibility: 6 miles ( 9 km)
Ceiling: at least 12,000 feet AGL
Clouds: sky clear below 12,000 feet AGL
Weather: no significant weather observed at this time

Forecast for: LELN (LEON/VIRGEN CAMI, ES)
Text: TAF LELN 252000Z 2521/2621 29005KT 9999 FEW040 TX17/2615Z TN05/2606Z
Forecast period: 2100 UTC 25 September 2020 to 1100 UTC 26 September 2020
Forecast type: FROM: standard forecast or significant change
Winds: from the WNW (290 degrees) at 6 MPH (5 knots; 2.6 m/s)
Visibility: 6 or more miles (10+ km)
Ceiling: at least 12,000 feet AGL
Clouds: few clouds at 4000 feet AGL
Weather: no significant weather forecast for this period
Text: BECMG 2611/2613 28015KT
Forecast period: 1100 to 2100 UTC 26 September 2020
Forecast type: BECOMING: Conditions expected to become as follows by 1300 UTC 26 September 2020
Winds: from the W (280 degrees) at 17 MPH (15 knots; 7.7 m/s)
Visibility: 6 or more miles (10+ km)
Ceiling: at least 12,000 feet AGL
Clouds: few clouds at 4000 feet AGL
Weather: no significant weather forecast for this period
Text: PROB40
Forecast period: 1300 to 1800 UTC 26 September 2020
Forecast type: TEMPORARY: The following changes expected for less than half the time period
Winds: from the W (270 degrees) at 20 MPH (17 knots; 8.7 m/s)
gusting to 31 MPH (27 knots; 13.9 m/s)
Visibility: missing
Ceiling: unknown
Clouds: missing
Weather: no significant weather forecast for this period